createdAt,value
2023-02-06T00:00:12.742Z,37.2
2023-02-06T00:01:24.857Z,37
2023-02-06T00:02:33.186Z,41.2
2023-02-06T00:03:41.926Z,38.9
2023-02-06T00:04:50.274Z,40.4
2023-02-06T00:05:58.180Z,42.1
2023-02-06T00:07:05.840Z,37.5
2023-02-06T00:08:14.190Z,38.3
2023-02-06T00:09:23.398Z,37.5
2023-02-06T00:10:31.674Z,35.7
2023-02-06T00:11:39.841Z,37.6
2023-02-06T00:12:51.415Z,37.1
2023-02-06T00:13:58.852Z,36.6
2023-02-06T00:15:08.617Z,35.3
2023-02-06T00:16:17.225Z,33.1
2023-02-06T00:17:29.888Z,35.4
2023-02-06T00:18:42.137Z,39.6
2023-02-06T00:19:49.716Z,37.1
2023-02-06T00:20:59.178Z,37.5
2023-02-06T00:22:08.860Z,36.1
2023-02-06T00:23:17.992Z,37
2023-02-06T00:24:27.338Z,37.7
2023-02-06T00:25:38.255Z,34.7
2023-02-06T00:26:46.364Z,36.4
2023-02-06T00:27:54.651Z,37.4
2023-02-06T00:29:02.120Z,36.9
2023-02-06T00:30:10.451Z,40.3
2023-02-06T00:31:19.938Z,40.4
2023-02-06T00:32:31.194Z,41.1
2023-02-06T00:33:39.489Z,39.8
2023-02-06T00:34:48.211Z,39.3
2023-02-06T00:35:58.691Z,40.4
2023-02-06T00:37:11.136Z,41.5
2023-02-06T00:38:20.204Z,41.8
2023-02-06T00:39:28.852Z,43
2023-02-06T00:40:37.668Z,44
2023-02-06T00:41:47.669Z,42.4
2023-02-06T00:42:57.125Z,39.1
2023-02-06T00:44:05.453Z,42.2
2023-02-06T00:45:14.633Z,43.1
2023-02-06T00:46:30.067Z,47
2023-02-06T00:47:34.592Z,45.6
2023-02-06T00:48:45.650Z,45.6
2023-02-06T00:49:54.619Z,46
2023-02-06T00:51:02.963Z,44.8
2023-02-06T00:52:12.378Z,48.8
2023-02-06T00:53:21.138Z,47.7
2023-02-06T00:54:29.660Z,50.3
2023-02-06T00:55:38.976Z,47.6
2023-02-06T00:56:48.088Z,47.3
2023-02-06T00:57:55.875Z,48.4
2023-02-06T00:59:04.397Z,48
2023-02-06T01:00:12.192Z,46.9
2023-02-06T01:01:21.444Z,47
2023-02-06T01:02:31.569Z,45.6
2023-02-06T01:03:39.998Z,45.5
2023-02-06T01:04:48.938Z,50.2
2023-02-06T01:05:58.783Z,56.8
2023-02-06T01:07:08.855Z,50.2
2023-02-06T01:08:18.951Z,48.9
2023-02-06T01:09:28.304Z,56.2
2023-02-06T01:10:36.809Z,53.4
2023-02-06T01:11:49.269Z,52.9
2023-02-06T01:12:58.823Z,51.6
2023-02-06T01:14:06.148Z,49
2023-02-06T01:15:14.601Z,51.6
2023-02-06T01:16:23.097Z,52.5
2023-02-06T01:17:31.408Z,54.1
2023-02-06T01:18:41.886Z,57
2023-02-06T01:19:51.476Z,53.8
2023-02-06T01:21:01.418Z,55.8
2023-02-06T01:22:13.691Z,59.1
2023-02-06T01:23:24.910Z,54.3
2023-02-06T01:24:34.074Z,54.4
2023-02-06T01:25:42.210Z,56
2023-02-06T01:26:53.037Z,56.7
2023-02-06T01:28:03.269Z,58.5
2023-02-06T01:29:11.317Z,56.2
2023-02-06T01:30:20.764Z,55.8
2023-02-06T01:31:29.330Z,59
2023-02-06T01:32:37.825Z,61.2
2023-02-06T01:33:45.991Z,58.6
2023-02-06T01:34:57.126Z,52.2
2023-02-06T01:36:08.940Z,51.6
2023-02-06T01:37:20.320Z,54.7
2023-02-06T01:38:29.182Z,57.8
2023-02-06T01:39:39.116Z,53.2
2023-02-06T01:40:47.905Z,56.2
2023-02-06T01:41:56.147Z,55.4
2023-02-06T01:43:04.958Z,55.3
2023-02-06T01:44:14.670Z,57.1
2023-02-06T01:45:23.444Z,53.2
2023-02-06T01:46:34.999Z,52.6
2023-02-06T01:47:47.402Z,52.2
2023-02-06T01:48:56.134Z,52.5
2023-02-06T01:50:06.361Z,54.4
2023-02-06T01:51:16.269Z,54.7
2023-02-06T01:52:25.870Z,51.9
2023-02-06T01:53:36.166Z,51.9
2023-02-06T01:54:45.746Z,51.2
2023-02-06T01:55:54.653Z,50.8
2023-02-06T01:57:04.810Z,53.2
2023-02-06T01:58:13.814Z,52.2
2023-02-06T01:59:24.097Z,52.1
2023-02-06T02:00:35.744Z,53.8
2023-02-06T02:01:45.736Z,52.1
2023-02-06T02:02:53.737Z,54.2
2023-02-06T02:04:01.832Z,51.4
2023-02-06T02:05:10.759Z,55
2023-02-06T02:06:20.129Z,52.8
2023-02-06T02:07:30.073Z,56.8
2023-02-06T02:08:41.301Z,56.7
2023-02-06T02:09:50.404Z,58.7
2023-02-06T02:10:58.930Z,59.6
2023-02-06T02:12:07.171Z,60.1
2023-02-06T02:13:16.024Z,60.5
2023-02-06T02:14:24.540Z,63.7
2023-02-06T02:15:32.428Z,59.6
2023-02-06T02:16:45.573Z,64.3
2023-02-06T02:18:05.022Z,58.3
2023-02-06T02:19:24.750Z,63.1
2023-02-06T02:20:44.222Z,62.2
2023-02-06T02:21:59.080Z,62.2
2023-02-06T02:23:20.093Z,62.5
2023-02-06T02:24:35.297Z,61.1
2023-02-06T02:25:55.743Z,61.6
2023-02-06T02:27:09.988Z,61.6
2023-02-06T02:28:23.421Z,61.6
2023-02-06T02:29:43.882Z,59.8
2023-02-06T02:31:02.892Z,55
2023-02-06T02:32:13.481Z,55.4
2023-02-06T02:33:33.961Z,57.3
2023-02-06T02:34:52.810Z,61.9
2023-02-06T02:36:03.696Z,57.1
2023-02-06T02:37:21.605Z,54.5
2023-02-06T02:38:41.178Z,57.3
2023-02-06T02:39:55.465Z,56.8
2023-02-06T02:41:04.938Z,53
2023-02-06T02:42:23.769Z,52.8
2023-02-06T02:43:32.474Z,54.9
2023-02-06T02:44:48.676Z,50.1
2023-02-06T02:46:04.984Z,49.3
2023-02-06T02:47:12.603Z,49.6
2023-02-06T02:48:21.978Z,50.2
2023-02-06T02:49:33.412Z,50.6
2023-02-06T02:50:44.647Z,51.4
2023-02-06T02:51:53.825Z,51.1
2023-02-06T02:53:01.745Z,51.2
2023-02-06T02:54:09.525Z,52.1
2023-02-06T02:55:16.929Z,50.2
2023-02-06T02:56:25.995Z,50.8
2023-02-06T02:57:36.019Z,46.2
2023-02-06T02:58:46.342Z,53.5
2023-02-06T03:00:01.859Z,52.8
2023-02-06T03:01:09.895Z,54.2
2023-02-06T03:02:18.571Z,52.9
2023-02-06T03:03:29.283Z,53.8
2023-02-06T03:04:36.986Z,55.5
2023-02-06T03:05:45.508Z,49.6
2023-02-06T03:06:59.214Z,56.2
2023-02-06T03:08:16.947Z,53.6
2023-02-06T03:09:31.106Z,54.5
2023-02-06T03:10:46.624Z,54.9
2023-02-06T03:11:59.682Z,52.9
2023-02-06T03:13:09.693Z,51.8
2023-02-06T03:14:25.498Z,52.4
2023-02-06T03:15:39.873Z,51.8
2023-02-06T03:16:57.126Z,53.3
2023-02-06T03:18:08.545Z,55.9
2023-02-06T03:19:17.204Z,55.1
2023-02-06T03:20:28.118Z,57.2
2023-02-06T03:21:38.953Z,57
2023-02-06T03:22:48.505Z,58.4
2023-02-06T03:23:55.823Z,58.5
2023-02-06T03:25:05.858Z,56.5
2023-02-06T03:26:14.970Z,58.1
2023-02-06T03:27:23.351Z,60.7
2023-02-06T03:28:33.203Z,58
2023-02-06T03:29:46.259Z,68.5
2023-02-06T03:30:55.908Z,64.7
2023-02-06T03:32:03.538Z,68
2023-02-06T03:33:16.176Z,64.6
2023-02-06T03:34:23.784Z,64.3
2023-02-06T03:35:41.111Z,67.5
2023-02-06T03:36:49.587Z,62.3
2023-02-06T03:37:57.998Z,65.7
2023-02-06T03:39:07.129Z,65.2
2023-02-06T03:40:17.604Z,63.3
2023-02-06T03:41:27.088Z,64.8
2023-02-06T03:42:35.548Z,66.4
2023-02-06T03:43:44.719Z,60.5
2023-02-06T03:44:54.075Z,64.9
2023-02-06T03:46:04.477Z,62
2023-02-06T03:47:13.287Z,59
2023-02-06T03:48:25.612Z,60.5
2023-02-06T03:49:36.749Z,61.4
2023-02-06T03:50:45.870Z,57.4
2023-02-06T03:51:56.216Z,59.7
2023-02-06T03:53:05.248Z,57.4
2023-02-06T03:54:13.911Z,56
2023-02-06T03:55:22.445Z,57.9
2023-02-06T03:56:31.684Z,58
2023-02-06T03:57:43.713Z,57.1
2023-02-06T03:58:51.143Z,54.6
2023-02-06T04:00:01.337Z,58.5
2023-02-06T04:01:11.199Z,54.2
2023-02-06T04:02:20.638Z,57.8
2023-02-06T04:03:31.137Z,55.1
2023-02-06T04:04:41.589Z,57.5
2023-02-06T04:05:50.582Z,54.5
2023-02-06T04:07:01.360Z,54.5
2023-02-06T04:08:17.986Z,57.6
2023-02-06T04:09:26.048Z,60.9
2023-02-06T04:10:36.313Z,57.3
2023-02-06T04:11:44.309Z,58.3
2023-02-06T04:12:52.756Z,59.5
2023-02-06T04:14:01.102Z,60.4
2023-02-06T04:15:10.729Z,59.3
2023-02-06T04:16:19.912Z,60.2
2023-02-06T04:17:43.465Z,64.4
2023-02-06T04:18:37.820Z,62.8
2023-02-06T04:19:48.937Z,60.5
2023-02-06T04:20:59.217Z,61.2
2023-02-06T04:22:11.452Z,62.3
2023-02-06T04:23:20.576Z,62.5
2023-02-06T04:24:31.061Z,62.5
2023-02-06T04:25:40.268Z,67.8
2023-02-06T04:26:47.981Z,66.5
2023-02-06T04:27:57.508Z,64.6
2023-02-06T04:29:08.649Z,61.5
2023-02-06T04:30:18.285Z,68.9
2023-02-06T04:31:26.903Z,61.8
2023-02-06T04:32:36.511Z,61.3
2023-02-06T04:33:44.400Z,60.7
2023-02-06T04:34:53.044Z,64.2
2023-02-06T04:36:03.455Z,64.6
2023-02-06T04:37:13.801Z,60.3
2023-02-06T04:38:22.598Z,68.6
2023-02-06T04:39:32.951Z,69.6
2023-02-06T04:40:42.019Z,65.9
2023-02-06T04:41:50.624Z,71.3
2023-02-06T04:43:00.710Z,72.8
2023-02-06T04:44:10.903Z,74.2
2023-02-06T04:45:20.844Z,71.7
2023-02-06T04:46:29.451Z,72.6
2023-02-06T04:47:38.510Z,71.5
2023-02-06T04:48:48.637Z,74.2
2023-02-06T04:49:58.192Z,75.7
2023-02-06T04:51:07.578Z,75.3
2023-02-06T04:52:16.128Z,74.4
2023-02-06T04:53:26.580Z,79
2023-02-06T04:54:37.238Z,78.5
2023-02-06T04:55:47.347Z,80.2
2023-02-06T04:56:56.858Z,76.1
2023-02-06T04:58:06.881Z,75.3
2023-02-06T04:59:17.157Z,75
2023-02-06T05:00:24.852Z,77.9
2023-02-06T05:01:33.341Z,75.7
2023-02-06T05:02:41.219Z,77
2023-02-06T05:03:50.084Z,85.3
2023-02-06T05:04:58.144Z,82.9
2023-02-06T05:06:06.927Z,87.1
2023-02-06T05:07:16.231Z,82.2
2023-02-06T05:08:24.616Z,83.2
2023-02-06T05:09:35.000Z,84.5
2023-02-06T05:10:43.666Z,89.9
2023-02-06T05:11:52.353Z,92.9
2023-02-06T05:13:00.804Z,126.4
2023-02-06T05:14:10.231Z,185.3
2023-02-06T05:15:19.006Z,180.3
2023-02-06T05:16:28.022Z,170.9
2023-02-06T05:17:37.266Z,164.6
2023-02-06T05:18:46.600Z,108.4
2023-02-06T05:19:59.549Z,108.4
2023-02-06T05:21:07.825Z,80.5
2023-02-06T05:22:18.100Z,81.8
2023-02-06T05:23:25.694Z,78.5
2023-02-06T05:24:35.247Z,79.8
2023-02-06T05:25:44.254Z,81.7
2023-02-06T05:26:53.247Z,81.6
2023-02-06T05:28:03.489Z,83.7
2023-02-06T05:29:14.281Z,84
2023-02-06T05:30:22.931Z,85.1
2023-02-06T05:31:32.274Z,85.5
2023-02-06T05:32:41.672Z,90.5
2023-02-06T05:33:52.624Z,91.7
2023-02-06T05:35:02.589Z,92
2023-02-06T05:36:12.008Z,89.5
2023-02-06T05:37:21.584Z,93.7
2023-02-06T05:38:32.359Z,95.3
2023-02-06T05:39:41.806Z,92.1
2023-02-06T05:40:52.105Z,98.6
2023-02-06T05:42:02.860Z,95
2023-02-06T05:43:11.936Z,94.5
2023-02-06T05:44:21.161Z,99.4
2023-02-06T05:45:34.560Z,97.4
2023-02-06T05:46:41.013Z,92.2
2023-02-06T05:47:48.287Z,92.1
2023-02-06T05:48:58.027Z,85.6
2023-02-06T05:50:07.866Z,90.4
2023-02-06T05:51:16.124Z,86.4
2023-02-06T05:52:26.031Z,86.4
2023-02-06T05:53:35.167Z,87.2
2023-02-06T05:54:44.396Z,82.6
2023-02-06T05:55:51.905Z,83
2023-02-06T05:57:01.445Z,80.7
2023-02-06T05:58:09.351Z,77.2
2023-02-06T05:59:17.649Z,73.1
2023-02-06T06:00:25.817Z,74.8
2023-02-06T06:01:33.859Z,68.3
2023-02-06T06:02:41.955Z,82
2023-02-06T06:03:50.850Z,85.2
2023-02-06T06:05:01.342Z,83.9
2023-02-06T06:06:08.680Z,81.4
2023-02-06T06:07:17.103Z,81.8
2023-02-06T06:08:24.514Z,81.9
2023-02-06T06:09:32.800Z,82.3
2023-02-06T06:10:41.681Z,80.4
2023-02-06T06:11:49.052Z,76.9
2023-02-06T06:12:56.577Z,79.7
2023-02-06T06:14:04.884Z,76.7
2023-02-06T06:15:12.921Z,74.9
2023-02-06T06:16:22.381Z,75.2
2023-02-06T06:17:31.629Z,76.1
2023-02-06T06:18:41.329Z,81.8
2023-02-06T06:19:51.001Z,82.9
2023-02-06T06:21:01.951Z,76.1
2023-02-06T06:22:12.184Z,76.6
2023-02-06T06:23:22.184Z,80.7
2023-02-06T06:24:29.616Z,76.8
2023-02-06T06:25:38.813Z,79.5
2023-02-06T06:26:47.984Z,76.8
2023-02-06T06:27:55.923Z,75.4
2023-02-06T06:29:04.426Z,74
2023-02-06T06:30:13.228Z,70.9
2023-02-06T06:31:21.217Z,71.9
2023-02-06T06:32:30.047Z,70.5
2023-02-06T06:33:37.999Z,67.6
2023-02-06T06:34:46.959Z,71.2
2023-02-06T06:35:54.645Z,65.9
2023-02-06T06:37:04.243Z,67.9
2023-02-06T06:38:12.800Z,62.3
2023-02-06T06:39:20.044Z,57.9
2023-02-06T06:40:28.528Z,57.9
2023-02-06T06:41:36.763Z,55.2
2023-02-06T06:42:44.183Z,53.2
2023-02-06T06:43:53.580Z,55.3
2023-02-06T06:45:01.952Z,55.6
2023-02-06T06:46:09.595Z,54.7
2023-02-06T06:47:17.143Z,50.7
2023-02-06T06:48:24.364Z,53
2023-02-06T06:49:32.915Z,51.7
2023-02-06T06:50:42.039Z,51.2
2023-02-06T06:51:49.714Z,52.1
2023-02-06T06:52:58.078Z,54.7
2023-02-06T06:54:06.668Z,50.8
2023-02-06T06:55:14.364Z,50.9
2023-02-06T06:56:21.983Z,53.2
2023-02-06T06:57:35.294Z,49.5
2023-02-06T06:58:50.191Z,49.5
2023-02-06T06:59:58.707Z,52.7
2023-02-06T07:01:07.613Z,49
2023-02-06T07:02:18.300Z,49.6
2023-02-06T07:03:25.876Z,52.8
2023-02-06T07:04:36.114Z,52.1
2023-02-06T07:05:45.923Z,49.9
2023-02-06T07:06:54.828Z,52.7
2023-02-06T07:08:04.355Z,48.2
2023-02-06T07:09:13.615Z,51.5
2023-02-06T07:10:20.824Z,49.8
2023-02-06T07:11:30.245Z,51
2023-02-06T07:12:38.863Z,48.4
2023-02-06T07:13:47.743Z,53
2023-02-06T07:14:57.008Z,47.6
2023-02-06T07:16:04.503Z,47.7
2023-02-06T07:17:12.383Z,51.4
2023-02-06T07:18:20.253Z,52.1
2023-02-06T07:19:28.920Z,53.3
2023-02-06T07:20:38.156Z,48.9
2023-02-06T07:21:48.907Z,55.2
2023-02-06T07:22:56.707Z,57.1
2023-02-06T07:24:04.992Z,59.7
2023-02-06T07:25:12.752Z,55.5
2023-02-06T07:26:21.414Z,61.6
2023-02-06T07:27:29.930Z,64.3
2023-02-06T07:28:38.056Z,63.2
2023-02-06T07:29:45.883Z,69.4
2023-02-06T07:30:54.139Z,69.4
2023-02-06T07:32:04.798Z,78.7
2023-02-06T07:33:11.991Z,79.9
2023-02-06T07:34:19.347Z,77.4
2023-02-06T07:35:31.137Z,74.3
2023-02-06T07:36:39.771Z,78.3
2023-02-06T07:37:47.914Z,78.9
2023-02-06T07:38:59.934Z,88.9
2023-02-06T07:40:07.173Z,93.8
2023-02-06T07:41:14.956Z,92.4
2023-02-06T07:42:23.976Z,96.5
2023-02-06T07:43:31.123Z,87.5
2023-02-06T07:44:40.509Z,87.2
2023-02-06T07:45:49.919Z,84
2023-02-06T07:46:59.610Z,75.4
2023-02-06T07:48:06.902Z,65.3
2023-02-06T07:49:15.131Z,66.5
2023-02-06T07:50:23.822Z,62.3
2023-02-06T07:51:32.087Z,65.6
2023-02-06T07:52:42.423Z,71.1
2023-02-06T07:53:49.894Z,64.4
2023-02-06T07:54:57.846Z,61.9
2023-02-06T07:56:05.542Z,64.3
2023-02-06T07:57:16.405Z,59.1
2023-02-06T07:58:23.898Z,65.7
2023-02-06T07:59:32.251Z,62.4
2023-02-06T08:00:40.316Z,63.3
2023-02-06T08:01:48.027Z,64.6
2023-02-06T08:02:56.227Z,65
2023-02-06T08:04:04.401Z,65.5
2023-02-06T08:05:13.467Z,70.8
2023-02-06T08:06:24.331Z,65.3
2023-02-06T08:07:31.292Z,57.3
2023-02-06T08:08:39.050Z,56.7
2023-02-06T08:09:47.173Z,61.9
2023-02-06T08:10:54.381Z,59.9
2023-02-06T08:12:02.978Z,58.7
2023-02-06T08:13:11.415Z,55
2023-02-06T08:14:21.492Z,57.2
2023-02-06T08:15:30.882Z,58.6
2023-02-06T08:16:39.185Z,60.1
2023-02-06T08:17:46.866Z,59.7
2023-02-06T08:18:55.050Z,64.2
2023-02-06T08:20:03.041Z,59.1
2023-02-06T08:21:10.714Z,51.2
2023-02-06T08:22:23.940Z,49.3
2023-02-06T08:23:32.454Z,52.1
2023-02-06T08:24:39.816Z,53.5
2023-02-06T08:25:50.575Z,57.4
2023-02-06T08:26:58.610Z,53.4
2023-02-06T08:28:08.179Z,52.2
2023-02-06T08:29:15.325Z,52.6
2023-02-06T08:30:24.078Z,57.4
2023-02-06T08:31:33.295Z,52.5
2023-02-06T08:32:40.797Z,49.6
2023-02-06T08:33:49.211Z,51.6
2023-02-06T08:34:57.383Z,53
2023-02-06T08:36:07.307Z,54.7
2023-02-06T08:37:15.741Z,55.7
2023-02-06T08:38:23.989Z,55.1
2023-02-06T08:39:31.835Z,54
2023-02-06T08:40:40.678Z,50.9
2023-02-06T08:41:51.867Z,46.2
2023-02-06T08:42:59.851Z,49.2
2023-02-06T08:44:08.833Z,48.4
2023-02-06T08:45:16.472Z,48.7
2023-02-06T08:46:24.729Z,49
2023-02-06T08:47:32.978Z,60.9
2023-02-06T08:48:41.300Z,48.8
2023-02-06T08:49:49.704Z,47.1
2023-02-06T08:50:57.087Z,44.9
2023-02-06T08:52:05.985Z,37.5
2023-02-06T08:53:14.260Z,35.3
2023-02-06T08:54:22.718Z,33
2023-02-06T08:55:31.749Z,33
2023-02-06T08:56:40.731Z,34.8
2023-02-06T08:57:48.279Z,31.9
2023-02-06T08:58:56.124Z,30.2
2023-02-06T09:00:05.180Z,31.4
2023-02-06T09:01:14.369Z,32.2
2023-02-06T09:02:22.139Z,34.1
2023-02-06T09:03:30.370Z,33
2023-02-06T09:04:41.520Z,30.1
2023-02-06T09:05:51.553Z,27.6
2023-02-06T09:07:04.127Z,27.1
2023-02-06T09:08:13.134Z,28.3
2023-02-06T09:09:20.469Z,29.7
2023-02-06T09:10:28.398Z,26
2023-02-06T09:11:36.373Z,27.4
2023-02-06T09:12:44.930Z,30.4
2023-02-06T09:13:53.896Z,26.8
2023-02-06T09:15:03.623Z,28.5
2023-02-06T09:16:12.183Z,30.3
2023-02-06T09:17:23.545Z,27.1
2023-02-06T09:18:32.438Z,25.2
2023-02-06T09:19:41.216Z,25.7
2023-02-06T09:20:48.607Z,24.3
2023-02-06T09:21:56.238Z,24.4
2023-02-06T09:23:04.320Z,28.3
2023-02-06T09:24:12.515Z,28.1
2023-02-06T09:25:20.703Z,27.6
2023-02-06T09:26:28.423Z,26.7
2023-02-06T09:27:37.069Z,27.9
2023-02-06T09:28:44.954Z,27.2
2023-02-06T09:29:58.755Z,25.8
2023-02-06T09:31:06.610Z,25.8
2023-02-06T09:32:14.983Z,28.5
2023-02-06T09:33:24.014Z,28.2
2023-02-06T09:34:34.000Z,30
2023-02-06T09:35:45.302Z,28.1
2023-02-06T09:36:53.680Z,28.2
2023-02-06T09:38:00.742Z,26.2
2023-02-06T09:39:08.112Z,28.2
2023-02-06T09:40:16.093Z,27.7
2023-02-06T09:41:24.821Z,29.1
2023-02-06T09:42:38.500Z,29
2023-02-06T09:43:45.891Z,29.4
2023-02-06T09:44:54.247Z,217.3
2023-02-06T09:46:04.713Z,35.6
2023-02-06T09:47:12.231Z,35.6
2023-02-06T09:48:28.969Z,28.5
2023-02-06T09:49:37.691Z,40.7
2023-02-06T09:50:47.774Z,32.7
2023-02-06T09:52:06.483Z,29.3
2023-02-06T09:53:24.492Z,37.4
2023-02-06T09:54:38.071Z,34.4
2023-02-06T09:55:54.012Z,28.2
2023-02-06T09:57:04.364Z,27
2023-02-06T09:58:12.762Z,25.6
2023-02-06T09:59:23.768Z,23.5
2023-02-06T10:00:38.055Z,23.9
2023-02-06T10:01:52.584Z,25.9
2023-02-06T10:03:10.967Z,24.2
2023-02-06T10:04:23.796Z,26.2
2023-02-06T10:05:39.147Z,23.9
2023-02-06T10:06:52.317Z,24.9
2023-02-06T10:08:02.782Z,24.3
2023-02-06T10:09:17.969Z,24.3
2023-02-06T10:10:34.082Z,26.6
2023-02-06T10:11:46.409Z,25
2023-02-06T10:12:56.381Z,23.8
2023-02-06T10:14:05.389Z,26
2023-02-06T10:15:20.553Z,26.8
2023-02-06T10:16:34.146Z,24.2
2023-02-06T10:17:48.033Z,25.6
2023-02-06T10:19:00.416Z,26.5
2023-02-06T10:20:19.092Z,26.5
2023-02-06T10:21:33.453Z,28.2
2023-02-06T10:22:44.399Z,27.7
2023-02-06T10:23:56.952Z,28.8
2023-02-06T10:25:14.412Z,29.3
2023-02-06T10:26:32.133Z,31.1
2023-02-06T10:27:39.706Z,28.6
2023-02-06T10:28:48.544Z,29.2
2023-02-06T10:29:58.739Z,26.8
2023-02-06T10:31:06.974Z,25.9
2023-02-06T10:32:20.486Z,28.7
2023-02-06T10:33:37.228Z,27.9
2023-02-06T10:34:47.126Z,30.9
2023-02-06T10:35:56.113Z,32.3
2023-02-06T10:37:13.363Z,30
2023-02-06T10:38:32.433Z,25.8
2023-02-06T10:39:41.427Z,24
2023-02-06T10:40:57.491Z,24
2023-02-06T10:42:09.952Z,21.9
2023-02-06T10:43:26.189Z,20.8
2023-02-06T10:44:39.927Z,21.6
2023-02-06T10:45:53.001Z,22.2
2023-02-06T10:47:00.794Z,21.9
2023-02-06T10:48:08.981Z,19.3
2023-02-06T10:49:21.165Z,20.2
2023-02-06T10:50:37.446Z,22
2023-02-06T10:51:48.153Z,19.8
2023-02-06T10:52:59.269Z,19.7
2023-02-06T10:54:09.758Z,19.7
2023-02-06T10:55:18.046Z,19.7
2023-02-06T10:56:31.176Z,21.6
2023-02-06T10:57:44.598Z,22.5
2023-02-06T10:58:51.789Z,21.4
2023-02-06T11:00:03.365Z,23.4
2023-02-06T11:01:23.866Z,23.5
2023-02-06T11:02:20.779Z,24.3
2023-02-06T11:03:39.818Z,21.9
2023-02-06T11:04:48.989Z,25.3
2023-02-06T11:05:56.970Z,23.7
2023-02-06T11:07:04.394Z,24.5
2023-02-06T11:08:18.454Z,25.8
2023-02-06T11:09:31.980Z,25.2
2023-02-06T11:10:39.373Z,26
2023-02-06T11:11:48.223Z,28
2023-02-06T11:12:54.585Z,28
2023-02-06T11:14:11.315Z,26.6
2023-02-06T11:15:22.104Z,26
2023-02-06T11:16:34.668Z,28.8
2023-02-06T11:17:41.654Z,26
2023-02-06T11:18:49.146Z,27.9
2023-02-06T11:19:56.474Z,26.8
2023-02-06T11:21:04.762Z,22
2023-02-06T11:22:12.861Z,24.7
2023-02-06T11:23:20.881Z,21.5
2023-02-06T11:24:32.263Z,23
2023-02-06T11:25:40.123Z,21
2023-02-06T11:26:47.408Z,21.9
2023-02-06T11:28:01.505Z,21.1
2023-02-06T11:29:08.639Z,20.3
2023-02-06T11:30:24.756Z,20.7
2023-02-06T11:31:32.859Z,20.4
2023-02-06T11:33:03.584Z,20.9
2023-02-06T11:33:57.176Z,23.9
2023-02-06T11:35:04.557Z,20.5
2023-02-06T11:36:14.274Z,21.8
2023-02-06T11:37:30.497Z,24.6
2023-02-06T11:38:43.212Z,22.6
2023-02-06T11:40:00.461Z,25
2023-02-06T11:41:26.224Z,24.9
2023-02-06T11:42:34.407Z,23
2023-02-06T11:43:41.869Z,24.6
2023-02-06T11:44:50.436Z,26.1
2023-02-06T11:45:58.047Z,22.9
2023-02-06T11:47:09.280Z,22.2
2023-02-06T11:48:27.895Z,23.2
2023-02-06T11:49:39.315Z,22.2
2023-02-06T11:50:47.211Z,24.7
2023-02-06T11:51:55.716Z,24.5
2023-02-06T11:53:04.855Z,25.9
2023-02-06T11:54:14.779Z,24.8
2023-02-06T11:55:26.072Z,21.7
2023-02-06T11:56:34.367Z,21.6
2023-02-06T11:57:44.212Z,22.5
2023-02-06T11:58:51.884Z,23.3
2023-02-06T12:00:08.937Z,23.3
2023-02-06T12:01:25.927Z,23.6
2023-02-06T12:02:33.913Z,22.7
2023-02-06T12:03:41.551Z,23.8
2023-02-06T12:04:53.815Z,27.8
2023-02-06T12:06:06.604Z,28.1
2023-02-06T12:07:18.738Z,25
2023-02-06T12:08:25.955Z,25.7
2023-02-06T12:09:33.919Z,24.1
2023-02-06T12:10:42.920Z,22.6
2023-02-06T12:11:56.059Z,20.8
2023-02-06T12:13:08.975Z,24.3
2023-02-06T12:14:21.013Z,23.1
2023-02-06T12:15:45.772Z,22.9
2023-02-06T12:16:45.044Z,21.5
2023-02-06T12:17:53.635Z,19.7
2023-02-06T12:19:05.041Z,20.7
2023-02-06T12:20:11.977Z,22.3
2023-02-06T12:21:19.543Z,20.9
2023-02-06T12:22:38.744Z,25.1
2023-02-06T12:23:48.379Z,23.4
2023-02-06T12:25:01.648Z,22.7
2023-02-06T12:26:10.136Z,21.8
2023-02-06T12:27:20.487Z,22.1
2023-02-06T12:28:33.352Z,20.8
2023-02-06T12:29:42.770Z,22.3
2023-02-06T12:30:51.787Z,22.9
2023-02-06T12:32:00.299Z,20.2
2023-02-06T12:33:13.946Z,20.8
2023-02-06T12:34:25.448Z,21.4
2023-02-06T12:35:35.129Z,20.9
2023-02-06T12:36:53.807Z,21.4
2023-02-06T12:38:07.057Z,19.3
2023-02-06T12:39:22.690Z,21.1
2023-02-06T12:40:30.908Z,22
2023-02-06T12:41:38.333Z,22.1
2023-02-06T12:42:52.924Z,24
2023-02-06T12:44:01.464Z,20.1
2023-02-06T12:45:14.797Z,23.5
2023-02-06T12:46:33.399Z,22.1
2023-02-06T12:47:42.678Z,22.9
2023-02-06T12:48:51.579Z,21.6
2023-02-06T12:50:11.810Z,22.2
2023-02-06T12:51:26.475Z,22.5
2023-02-06T12:52:36.435Z,20.5
2023-02-06T12:53:49.700Z,20.8
2023-02-06T12:55:02.044Z,24.1
2023-02-06T12:56:19.704Z,21.5
2023-02-06T12:57:26.938Z,23
2023-02-06T12:58:35.036Z,21.2
2023-02-06T12:59:57.335Z,21.3
2023-02-06T13:00:58.058Z,23.5
2023-02-06T13:02:11.967Z,20
2023-02-06T13:03:30.059Z,23.9
2023-02-06T13:04:40.208Z,22.7
2023-02-06T13:05:51.057Z,22.9
2023-02-06T13:07:05.605Z,22
2023-02-06T13:08:15.596Z,21.7
2023-02-06T13:09:28.199Z,21.6
2023-02-06T13:10:36.853Z,22.6
2023-02-06T13:11:47.647Z,20.2
2023-02-06T13:12:56.550Z,21.9
2023-02-06T13:14:03.922Z,20.6
2023-02-06T13:15:19.808Z,20.7
2023-02-06T13:16:30.193Z,25.3
2023-02-06T13:17:41.016Z,21
2023-02-06T13:18:52.466Z,22.2
2023-02-06T13:20:01.593Z,24.6
2023-02-06T13:21:14.722Z,23
2023-02-06T13:22:26.673Z,24.1
2023-02-06T13:23:42.218Z,25.5
2023-02-06T13:24:56.433Z,23.6
2023-02-06T13:26:05.610Z,24.2
2023-02-06T13:27:13.179Z,23.6
2023-02-06T13:28:29.485Z,22.8
2023-02-06T13:29:40.665Z,25.9
2023-02-06T13:30:48.084Z,22.9
2023-02-06T13:32:04.653Z,22.5
2023-02-06T13:33:18.896Z,20.6
2023-02-06T13:34:27.926Z,20.7
2023-02-06T13:35:38.152Z,21.4
2023-02-06T13:36:56.790Z,22.1
2023-02-06T13:38:04.454Z,22.1
2023-02-06T13:39:20.287Z,22.1
2023-02-06T13:40:32.026Z,22.3
2023-02-06T13:41:41.467Z,23.6
2023-02-06T13:42:48.656Z,22.2
2023-02-06T13:43:57.539Z,25.4
2023-02-06T13:45:08.378Z,23.8
2023-02-06T13:46:27.045Z,20.3
2023-02-06T13:47:46.931Z,22.3
2023-02-06T13:49:00.312Z,23
2023-02-06T13:50:19.345Z,22.7
2023-02-06T13:51:37.191Z,22.4
2023-02-06T13:52:50.770Z,22.9
2023-02-06T13:54:03.666Z,21.6
2023-02-06T13:55:14.502Z,21.6
2023-02-06T13:56:32.732Z,21.6
2023-02-06T13:57:49.228Z,21.9
2023-02-06T13:59:04.881Z,22.5
2023-02-06T14:00:18.017Z,23.3
2023-02-06T14:01:27.003Z,22.3
2023-02-06T14:02:34.661Z,22.2
2023-02-06T14:03:42.629Z,23.2
2023-02-06T14:04:50.785Z,22.7
2023-02-06T14:05:58.993Z,23.4
2023-02-06T14:07:12.219Z,23.4
2023-02-06T14:08:30.492Z,21.9
2023-02-06T14:09:45.256Z,21.7
2023-02-06T14:11:00.248Z,23.5
2023-02-06T14:12:12.733Z,23.1
2023-02-06T14:13:36.850Z,23.3
2023-02-06T14:14:49.080Z,21.7
2023-02-06T14:16:09.021Z,22.1
2023-02-06T14:17:25.228Z,21.1
2023-02-06T14:18:36.455Z,20.7
2023-02-06T14:19:45.586Z,22
2023-02-06T14:21:04.509Z,21.5
2023-02-06T14:22:15.564Z,20.5
2023-02-06T14:23:31.035Z,23
2023-02-06T14:24:49.104Z,21.7
2023-02-06T14:26:08.143Z,20.9
2023-02-06T14:27:25.891Z,21
2023-02-06T14:28:39.931Z,21
2023-02-06T14:29:47.215Z,21
2023-02-06T14:30:57.484Z,21.6
2023-02-06T14:32:13.535Z,20.9
2023-02-06T14:33:22.589Z,22
2023-02-06T14:34:38.510Z,21.9
2023-02-06T14:35:56.495Z,23.7
2023-02-06T14:37:09.736Z,20.3
2023-02-06T14:38:27.263Z,20.9
2023-02-06T14:39:36.610Z,18.8
2023-02-06T14:40:54.587Z,20.5
2023-02-06T14:42:02.447Z,22.4
2023-02-06T14:43:10.650Z,21.5
2023-02-06T14:44:23.817Z,21.6
2023-02-06T14:45:38.702Z,21.6
2023-02-06T14:46:39.027Z,24.5
2023-02-06T14:47:47.527Z,21.9
2023-02-06T14:48:56.188Z,21.8
2023-02-06T14:50:03.469Z,22.1
2023-02-06T14:51:12.584Z,24.9
2023-02-06T14:52:32.964Z,23.5
2023-02-06T14:53:42.078Z,24.9
2023-02-06T14:54:50.032Z,22
2023-02-06T14:55:59.984Z,25.3
2023-02-06T14:57:13.798Z,24.4
2023-02-06T14:58:27.368Z,23.7
2023-02-06T14:59:41.240Z,23.3
2023-02-06T15:01:03.801Z,23.6
2023-02-06T15:02:14.778Z,24.1
2023-02-06T15:03:27.913Z,22.3
2023-02-06T15:04:37.453Z,22.9
2023-02-06T15:05:51.869Z,22.1
2023-02-06T15:07:07.616Z,20.6
2023-02-06T15:08:16.890Z,23.1
2023-02-06T15:09:24.637Z,21.5
2023-02-06T15:10:36.871Z,22.6
2023-02-06T15:11:46.183Z,23.6
2023-02-06T15:12:53.596Z,19.9
2023-02-06T15:14:01.909Z,21.7
2023-02-06T15:15:09.010Z,23.3
2023-02-06T15:16:20.502Z,21.4
2023-02-06T15:17:31.194Z,22.2
2023-02-06T15:18:39.954Z,24
2023-02-06T15:19:48.274Z,24.3
2023-02-06T15:20:55.763Z,24
2023-02-06T15:22:08.990Z,24.7
2023-02-06T15:23:18.275Z,23.4
2023-02-06T15:24:28.942Z,22.7
2023-02-06T15:25:49.321Z,23.8
2023-02-06T15:27:01.808Z,22.7
2023-02-06T15:28:16.648Z,21.9
2023-02-06T15:29:25.344Z,21
2023-02-06T15:30:34.621Z,21.6
2023-02-06T15:31:42.505Z,20.9
2023-02-06T15:32:50.692Z,21.2
2023-02-06T15:33:59.242Z,22.3
2023-02-06T15:35:07.777Z,20.4
2023-02-06T15:36:22.739Z,20.4
2023-02-06T15:37:34.293Z,22.1
2023-02-06T15:38:41.905Z,20.9
2023-02-06T15:39:50.541Z,24
2023-02-06T15:40:58.753Z,23.4
2023-02-06T15:42:06.354Z,24.3
2023-02-06T15:43:13.758Z,23.4